Time;durP1;ratioP1;P1;durP2;ratioP2;P2;SDS_P1;SDS_P2;PMS_P1;PMS_P2;Temp;Humidity;BMP_temperature;BMP_pressure;BME280_temperature;BME280_humidity;BME280_pressure;Samples;Min_cycle;Max_cycle;Signal;HPM_P1;HPM_P2
2023/10/09 00:02:50;;;;;;;30.48;17.62;;;13.10;99.90;;;;;;7304124;32;20171;-55
2023/10/09 00:06:57;;;;;;;31.75;14.60;;;13.20;99.90;;;;;;7300316;32;20831;-56
2023/10/09 00:11:16;;;;;;;22.23;13.90;;;13.10;99.90;;;;;;7299865;32;20818;-55
2023/10/09 00:15:18;;;;;;;29.65;14.48;;;13.00;99.90;;;;;;7302682;32;20138;-55
2023/10/09 00:19:20;;;;;;;23.98;13.55;;;13.00;99.90;;;;;;7297671;32;20586;-55
2023/10/09 00:23:25;;;;;;;26.85;13.52;;;12.90;99.90;;;;;;7302128;32;20187;-57
2023/10/09 00:27:31;;;;;;;23.95;13.38;;;12.80;99.90;;;;;;7303783;32;20123;-55
2023/10/09 00:31:33;;;;;;;21.10;12.73;;;12.80;99.90;;;;;;7302971;32;20215;-55
2023/10/09 00:39:48;;;;;;;22.90;12.73;;;12.60;99.90;;;;;;7300104;32;20354;-56
2023/10/09 00:43:52;;;;;;;24.25;12.37;;;12.60;99.90;;;;;;7300814;32;20576;-56
2023/10/09 00:47:58;;;;;;;24.50;12.75;;;12.50;99.90;;;;;;7299206;32;20177;-55
2023/10/09 00:52:01;;;;;;;19.87;12.53;;;12.50;99.90;;;;;;7301148;32;20100;-55
2023/10/09 00:56:18;;;;;;;29.55;12.30;;;12.40;99.90;;;;;;7300146;32;20360;-56
2023/10/09 01:00:33;;;;;;;22.58;12.35;;;12.40;99.90;;;;;;7302544;32;20341;-56
2023/10/09 01:04:40;;;;;;;24.63;12.30;;;12.50;99.90;;;;;;7301341;32;20099;-55
2023/10/09 01:12:46;;;;;;;22.40;11.52;;;12.40;99.90;;;;;;7303361;32;20425;-56
2023/10/09 01:16:48;;;;;;;16.48;10.65;;;12.40;99.90;;;;;;7302709;32;20112;-55
2023/10/09 01:20:52;;;;;;;18.37;10.75;;;12.40;99.90;;;;;;7304822;32;20113;-55
2023/10/09 01:24:55;;;;;;;19.95;11.80;;;12.40;99.90;;;;;;7301671;32;20360;-55
2023/10/09 01:28:59;;;;;;;21.70;10.13;;;12.40;99.90;;;;;;7300033;32;20154;-55
2023/10/09 01:33:11;;;;;;;20.83;10.48;;;12.40;99.90;;;;;;7292931;32;20115;-55
2023/10/09 01:37:28;;;;;;;21.48;10.93;;;12.40;99.90;;;;;;7304014;32;20270;-55
2023/10/09 01:41:34;;;;;;;15.77;9.57;;;12.30;99.90;;;;;;7299659;32;20161;-55
2023/10/09 01:45:42;;;;;;;17.33;9.38;;;12.30;99.90;;;;;;7303982;32;20187;-55
2023/10/09 01:49:49;;;;;;;20.37;10.02;;;12.30;99.90;;;;;;7302574;32;20143;-55
2023/10/09 01:53:56;;;;;;;18.30;10.13;;;12.30;99.90;;;;;;7301192;32;20167;-55
2023/10/09 01:58:01;;;;;;;19.10;10.25;;;12.30;99.90;;;;;;7298774;32;20119;-55
2023/10/09 02:02:44;;;;;;;18.55;10.48;;;12.20;99.90;;;;;;7303042;32;20239;-56
2023/10/09 02:06:37;;;;;;;18.17;10.55;;;12.20;99.90;;;;;;7299756;32;20108;-55
2023/10/09 02:10:39;;;;;;;18.02;9.77;;;12.30;99.90;;;;;;7299924;32;20123;-56
2023/10/09 02:14:41;;;;;;;16.58;10.05;;;12.30;99.90;;;;;;7303703;32;20180;-55
2023/10/09 02:18:52;;;;;;;18.48;9.70;;;12.20;99.90;;;;;;7293273;32;20121;-56
2023/10/09 02:22:55;;;;;;;17.98;9.00;;;12.20;99.90;;;;;;7302831;32;20422;-53
2023/10/09 02:31:01;;;;;;;18.02;9.80;;;12.30;99.90;;;;;;7302245;32;20099;-55
2023/10/09 02:35:10;;;;;;;13.35;9.05;;;12.30;99.90;;;;;;7297142;32;20103;-56
2023/10/09 02:39:24;;;;;;;15.38;9.15;;;12.20;99.90;;;;;;7295112;32;20287;-56
2023/10/09 02:43:27;;;;;;;12.57;8.32;;;12.20;99.90;;;;;;7301830;32;20279;-55
2023/10/09 02:47:38;;;;;;;15.77;8.32;;;12.20;99.90;;;;;;7299981;32;20126;-55
2023/10/09 02:51:47;;;;;;;15.57;8.65;;;12.20;99.90;;;;;;7295865;32;20149;-55
2023/10/09 03:00:18;;;;;;;14.77;9.23;;;12.30;99.90;;;;;;7300957;32;20127;-55
2023/10/09 03:04:23;;;;;;;14.15;8.13;;;12.20;99.90;;;;;;7298689;32;20233;-57
2023/10/09 03:08:26;;;;;;;13.90;8.88;;;12.30;99.90;;;;;;7296515;32;20141;-55
2023/10/09 03:12:28;;;;;;;15.82;9.05;;;12.30;99.90;;;;;;7299843;32;20127;-55
2023/10/09 03:16:30;;;;;;;13.52;8.20;;;12.30;99.90;;;;;;7299348;32;20401;-55
2023/10/09 03:20:32;;;;;;;13.62;8.43;;;12.40;99.90;;;;;;7298619;32;20254;-57
2023/10/09 03:24:35;;;;;;;14.68;8.23;;;12.40;99.90;;;;;;7300365;32;20268;-55
2023/10/09 03:28:36;;;;;;;13.15;8.15;;;12.40;99.90;;;;;;7302841;32;20099;-55
2023/10/09 03:32:38;;;;;;;12.05;8.20;;;12.50;99.90;;;;;;7301649;32;20816;-55
2023/10/09 03:36:40;;;;;;;11.80;7.45;;;12.50;99.90;;;;;;7298057;32;20107;-55
2023/10/09 03:40:43;;;;;;;13.18;7.87;;;12.50;99.90;;;;;;7306213;32;20103;-56
2023/10/09 03:44:52;;;;;;;12.18;7.90;;;12.60;99.90;;;;;;7304554;32;20270;-54
2023/10/09 03:48:56;;;;;;;11.07;7.10;;;12.60;99.90;;;;;;7306110;32;20104;-57
2023/10/09 03:52:58;;;;;;;10.55;7.57;;;12.60;99.90;;;;;;7306917;32;20750;-56
2023/10/09 03:57:00;;;;;;;13.27;8.02;;;12.70;99.90;;;;;;7302900;32;20187;-56
2023/10/09 04:01:07;;;;;;;14.57;7.93;;;12.70;99.90;;;;;;7303216;32;20127;-55
2023/10/09 04:05:09;;;;;;;;;;;12.70;99.90;;;;;;7300061;32;20257;-55
2023/10/09 04:13:33;;;;;;;13.60;7.37;;;12.80;99.90;;;;;;7301466;32;20108;-56
2023/10/09 04:17:35;;;;;;;14.95;7.78;;;12.90;99.90;;;;;;7301971;32;20107;-56
2023/10/09 04:21:37;;;;;;;16.08;8.07;;;13.00;99.90;;;;;;7304461;32;20165;-55
2023/10/09 04:25:45;;;;;;;14.95;8.55;;;13.10;99.90;;;;;;7305673;32;20123;-56
2023/10/09 04:29:49;;;;;;;;;;;13.20;99.90;;;;;;7305566;32;20470;-57
2023/10/09 04:34:21;;;;;;;14.32;8.07;;;13.20;99.90;;;;;;7299710;32;20734;-55
2023/10/09 04:38:15;;;;;;;14.10;8.75;;;13.20;99.90;;;;;;7305161;32;20375;-55
2023/10/09 04:46:26;;;;;;;14.48;9.48;;;13.40;99.90;;;;;;7296420;32;20279;-56
2023/10/09 04:54:39;;;;;;;15.57;10.25;;;13.70;99.90;;;;;;7296168;32;20096;-56
2023/10/09 04:58:41;;;;;;;19.60;10.20;;;13.70;99.90;;;;;;7292196;32;20879;-55
2023/10/09 05:02:53;;;;;;;13.70;9.57;;;13.80;99.90;;;;;;7299058;32;20206;-57
2023/10/09 05:06:56;;;;;;;18.17;9.80;;;13.90;99.90;;;;;;7293186;32;20242;-58
2023/10/09 05:15:09;;;;;;;14.20;8.45;;;14.00;99.90;;;;;;7296901;32;20601;-56
2023/10/09 05:19:33;;;;;;;17.45;9.25;;;13.90;99.90;;;;;;7300022;32;20115;-57
2023/10/09 05:23:44;;;;;;;13.48;8.38;;;13.90;99.90;;;;;;7298386;32;20100;-56
2023/10/09 05:27:50;;;;;;;14.18;8.68;;;13.90;99.90;;;;;;7303711;32;20217;-56
2023/10/09 05:40:31;;;;;;;15.40;9.23;;;13.90;99.90;;;;;;7299822;32;20601;-56
2023/10/09 05:48:54;;;;;;;14.65;9.10;;;13.90;99.90;;;;;;7299268;32;20238;-57
2023/10/09 05:53:34;;;;;;;16.75;9.25;;;13.90;99.90;;;;;;7298433;32;20637;-57
2023/10/09 06:06:18;;;;;;;17.40;8.70;;;14.10;99.90;;;;;;7296627;32;20111;-58
2023/10/09 06:10:37;;;;;;;14.57;9.05;;;14.10;99.90;;;;;;7295968;32;20206;-58
2023/10/09 06:18:42;;;;;;;17.17;10.85;;;14.10;99.90;;;;;;7297577;32;20325;-58
2023/10/09 06:22:58;;;;;;;17.55;11.05;;;14.10;99.90;;;;;;7291423;32;20114;-58
2023/10/09 06:31:27;;;;;;;15.23;10.18;;;14.20;99.90;;;;;;7296596;32;20108;-58
2023/10/09 06:35:33;;;;;;;12.68;9.73;;;14.30;99.90;;;;;;7297913;32;20168;-58
2023/10/09 06:39:50;;;;;;;17.50;10.32;;;14.30;99.90;;;;;;7296174;32;20469;-59
2023/10/09 06:43:53;;;;;;;13.50;8.75;;;14.30;99.90;;;;;;7299819;32;20126;-58
2023/10/09 06:48:09;;;;;;;15.98;10.20;;;14.50;99.90;;;;;;7298050;32;20246;-58
2023/10/09 06:52:15;;;;;;;17.47;10.07;;;14.60;99.90;;;;;;7299090;32;20134;-58
2023/10/09 07:04:54;;;;;;;15.05;9.02;;;14.90;99.90;;;;;;7296474;32;20139;-58
2023/10/09 07:13:08;;;;;;;12.13;8.38;;;15.00;99.90;;;;;;7294769;32;20471;-56
2023/10/09 07:17:26;;;;;;;17.95;8.80;;;15.00;99.90;;;;;;7295075;32;20115;-58
2023/10/09 07:21:28;;;;;;;14.93;9.10;;;15.20;99.90;;;;;;7300017;32;20104;-57
2023/10/09 07:25:49;;;;;;;14.85;9.32;;;15.40;99.90;;;;;;7295629;32;20173;-57
2023/10/09 07:29:51;;;;;;;13.40;9.43;;;15.40;99.90;;;;;;7296070;32;20127;-56
2023/10/09 07:33:59;;;;;;;17.50;10.30;;;15.50;99.90;;;;;;7291785;32;20753;-57
2023/10/09 07:38:03;;;;;;;16.45;9.93;;;15.60;99.90;;;;;;7296142;32;20104;-57
2023/10/09 07:42:26;;;;;;;14.73;8.45;;;15.70;99.90;;;;;;7295636;32;20244;-57
2023/10/09 07:47:14;;;;;;;14.05;9.07;;;15.90;99.90;;;;;;7301095;32;20260;-56
2023/10/09 07:50:59;;;;;;;19.35;8.95;;;16.10;99.90;;;;;;7296150;32;20454;-57
2023/10/09 07:55:06;;;;;;;17.25;9.20;;;16.20;99.90;;;;;;7299366;32;20580;-57
2023/10/09 07:59:11;;;;;;;14.48;9.30;;;16.30;99.90;;;;;;7298288;32;20108;-57
2023/10/09 08:03:23;;;;;;;13.15;8.32;;;16.20;99.90;;;;;;7298531;32;20159;-57
2023/10/09 08:07:26;;;;;;;16.65;9.63;;;16.20;99.90;;;;;;7294675;32;20146;-57
2023/10/09 08:12:13;;;;;;;16.33;9.38;;;16.30;99.90;;;;;;7295224;32;20426;-56
2023/10/09 08:16:24;;;;;;;13.10;8.65;;;16.40;99.90;;;;;;7293524;32;20126;-57
2023/10/09 08:24:56;;;;;;;13.55;8.73;;;16.40;99.90;;;;;;7303606;32;20148;-58
2023/10/09 08:29:17;;;;;;;18.23;9.13;;;16.60;99.90;;;;;;7301813;32;20228;-56
2023/10/09 08:37:30;;;;;;;15.88;9.05;;;16.90;99.90;;;;;;7298953;32;20119;-57
2023/10/09 08:41:31;;;;;;;15.82;8.90;;;17.10;99.90;;;;;;7298986;32;20115;-58
2023/10/09 08:45:33;;;;;;;15.00;8.50;;;17.20;99.90;;;;;;7299715;32;20164;-57
2023/10/09 08:49:37;;;;;;;14.77;8.60;;;17.30;99.90;;;;;;7300414;32;20749;-57
2023/10/09 08:53:42;;;;;;;16.62;9.20;;;17.30;99.90;;;;;;7300588;32;20112;-58
2023/10/09 08:57:46;;;;;;;13.48;8.73;;;17.20;99.90;;;;;;7303137;32;20466;-57
2023/10/09 09:01:49;;;;;;;17.42;9.20;;;17.20;99.90;;;;;;7303492;32;20107;-57
2023/10/09 09:06:01;;;;;;;15.30;8.52;;;17.20;99.90;;;;;;7299908;32;20137;-58
2023/10/09 09:10:17;;;;;;;15.55;8.50;;;17.40;99.90;;;;;;7289551;32;20093;-58
2023/10/09 09:14:19;;;;;;;13.20;8.35;;;17.40;99.90;;;;;;7297662;32;20196;-57
2023/10/09 09:18:20;;;;;;;15.52;8.27;;;17.50;99.90;;;;;;7301975;32;20103;-57
2023/10/09 09:22:22;;;;;;;15.25;8.35;;;17.50;99.90;;;;;;7301966;32;20500;-57
2023/10/09 09:26:37;;;;;;;20.00;8.48;;;17.80;99.90;;;;;;7301662;32;20579;-57
2023/10/09 09:30:40;;;;;;;16.87;8.68;;;18.10;99.90;;;;;;7301715;32;20104;-57
2023/10/09 09:35:04;;;;;;;21.77;8.57;;;18.30;99.90;;;;;;7296725;32;20134;-58
2023/10/09 09:39:18;;;;;;;15.98;8.88;;;18.60;99.90;;;;;;7294541;32;20108;-57
2023/10/09 09:43:22;;;;;;;14.02;8.05;;;18.70;99.90;;;;;;7299086;32;20229;-55
2023/10/09 09:47:25;;;;;;;13.85;8.30;;;18.70;99.90;;;;;;7300259;32;20218;-55
2023/10/09 09:51:30;;;;;;;14.85;8.18;;;18.60;99.90;;;;;;7297133;32;20112;-56
2023/10/09 09:55:41;;;;;;;13.80;8.02;;;18.50;99.90;;;;;;7299092;32;20197;-56
2023/10/09 09:59:50;;;;;;;15.77;8.52;;;18.40;99.90;;;;;;7296390;32;20244;-59
2023/10/09 10:04:01;;;;;;;16.00;8.80;;;18.40;99.90;;;;;;7302462;32;20557;-58
2023/10/09 10:08:05;;;;;;;13.60;8.52;;;18.40;99.90;;;;;;7300225;32;20134;-58
2023/10/09 10:12:11;;;;;;;15.68;8.20;;;18.40;99.90;;;;;;7295095;32;20171;-58
2023/10/09 10:16:20;;;;;;;13.98;8.70;;;18.40;99.90;;;;;;7297648;32;20123;-57
2023/10/09 10:24:30;;;;;;;20.55;8.57;;;18.60;99.90;;;;;;7294080;32;20141;-58
2023/10/09 10:28:38;;;;;;;14.68;8.18;;;18.80;99.90;;;;;;7297217;32;20257;-58
2023/10/09 10:32:57;;;;;;;24.08;8.93;;;18.90;99.90;;;;;;7296738;32;20153;-57
2023/10/09 10:36:59;;;;;;;15.50;8.45;;;19.10;99.90;;;;;;7289583;32;20135;-58
2023/10/09 10:41:19;;;;;;;15.48;8.32;;;19.00;99.90;;;;;;7297064;32;20101;-59
2023/10/09 10:45:38;;;;;;;12.35;7.78;;;19.10;99.90;;;;;;7300289;32;20153;-58
2023/10/09 10:49:43;;;;;;;12.80;7.82;;;19.10;99.90;;;;;;7294806;32;20672;-58
2023/10/09 10:54:26;;;;;;;15.57;8.25;;;19.10;99.90;;;;;;7299124;32;20092;-58
2023/10/09 10:58:23;;;;;;;14.13;8.60;;;19.10;99.90;;;;;;7293935;32;20178;-57
2023/10/09 11:02:27;;;;;;;15.05;8.30;;;19.20;99.90;;;;;;7299257;32;20503;-58
2023/10/09 11:06:37;;;;;;;13.90;8.35;;;19.20;99.90;;;;;;7296818;32;20561;-57
2023/10/09 11:10:49;;;;;;;14.55;7.82;;;19.10;99.90;;;;;;7298309;32;20514;-58
2023/10/09 11:15:08;;;;;;;13.20;8.38;;;19.10;99.90;;;;;;7296875;32;20148;-57
2023/10/09 11:19:52;;;;;;;13.00;8.10;;;19.20;99.90;;;;;;7294956;32;21025;-58
2023/10/09 11:27:54;;;;;;;14.60;8.68;;;19.30;99.90;;;;;;7292188;32;20147;-63
2023/10/09 11:32:05;;;;;;;23.95;8.50;;;19.50;99.90;;;;;;7299288;32;20513;-64
2023/10/09 11:36:08;;;;;;;14.25;8.40;;;19.40;99.90;;;;;;7296840;32;20203;-61
2023/10/09 11:41:03;;;;;;;14.48;8.00;;;19.50;99.90;;;;;;7294120;32;20560;-63
2023/10/09 11:44:55;;;;;;;14.38;7.95;;;19.50;99.90;;;;;;7295748;32;20131;-58
2023/10/09 11:57:33;;;;;;;12.95;7.68;;;19.40;99.90;;;;;;7301910;32;20197;-58
2023/10/09 12:01:37;;;;;;;15.13;8.60;;;19.50;99.90;;;;;;7305068;32;20816;-58
2023/10/09 12:05:43;;;;;;;16.77;8.00;;;19.50;99.90;;;;;;7297752;32;20242;-58
2023/10/09 12:09:45;;;;;;;13.52;7.78;;;19.70;99.90;;;;;;7305094;32;20134;-58
2023/10/09 12:13:47;;;;;;;13.75;8.40;;;19.60;99.90;;;;;;7298653;32;20202;-57
2023/10/09 12:17:49;;;;;;;14.98;7.62;;;19.70;99.90;;;;;;7304332;32;20112;-58
2023/10/09 12:21:52;;;;;;;16.15;8.18;;;19.80;99.90;;;;;;7301297;32;20645;-57
2023/10/09 12:25:56;;;;;;;13.15;7.40;;;19.80;99.90;;;;;;7296153;32;20158;-58
2023/10/09 12:29:58;;;;;;;13.02;6.82;;;20.00;99.90;;;;;;7298006;32;20120;-57
2023/10/09 12:34:01;;;;;;;13.52;7.20;;;20.10;99.90;;;;;;7293920;32;20587;-58
2023/10/09 12:38:08;;;;;;;12.27;7.87;;;20.10;99.90;;;;;;7301232;32;20167;-58
2023/10/09 12:42:11;;;;;;;;;;;20.10;99.90;;;;;;7299826;32;20140;-57
2023/10/09 12:46:16;;;;;;;10.48;7.47;;;20.10;99.90;;;;;;7298322;32;20011;-57
2023/10/09 12:50:27;;;;;;;12.52;7.47;;;20.00;99.90;;;;;;7297782;32;20765;-58
2023/10/09 12:54:30;;;;;;;16.27;7.95;;;19.90;99.90;;;;;;7298120;32;20609;-55
2023/10/09 12:58:37;;;;;;;12.40;7.80;;;20.00;99.90;;;;;;7301157;32;20111;-58
2023/10/09 13:02:44;;;;;;;11.65;7.07;;;20.00;99.90;;;;;;7299315;32;20122;-58
2023/10/09 13:06:46;;;;;;;14.10;7.80;;;20.00;99.90;;;;;;7299060;32;20852;-57
2023/10/09 13:10:58;;;;;;;12.43;7.05;;;20.00;99.90;;;;;;7298539;32;20831;-57
2023/10/09 13:15:00;;;;;;;15.13;7.78;;;20.00;99.90;;;;;;7299304;32;20107;-57
2023/10/09 13:19:09;;;;;;;11.65;6.85;;;20.00;99.90;;;;;;7299977;32;20184;-58
2023/10/09 13:23:14;;;;;;;14.90;7.68;;;20.00;99.90;;;;;;7297093;32;21926;-58
2023/10/09 13:27:21;;;;;;;18.85;8.35;;;20.00;99.90;;;;;;7298179;32;20112;-58
2023/10/09 13:31:28;;;;;;;14.23;9.13;;;20.00;99.90;;;;;;7293226;32;20300;-59
2023/10/09 13:35:37;;;;;;;16.02;9.35;;;20.00;99.90;;;;;;7299630;32;20173;-57
2023/10/09 13:39:51;;;;;;;15.18;8.73;;;20.00;99.90;;;;;;7299118;32;20521;-56
2023/10/09 13:43:53;;;;;;;20.02;9.85;;;20.00;99.90;;;;;;7294043;32;20136;-57
2023/10/09 13:47:57;;;;;;;15.15;9.05;;;20.00;99.90;;;;;;7299424;32;20236;-57
2023/10/09 13:52:03;;;;;;;15.05;9.70;;;20.00;99.90;;;;;;7294272;32;20115;-57
2023/10/09 13:56:14;;;;;;;18.08;9.23;;;19.90;99.90;;;;;;7290932;32;20565;-57
2023/10/09 14:00:32;;;;;;;15.65;10.05;;;19.80;99.90;;;;;;7297301;32;20163;-58
2023/10/09 14:04:34;;;;;;;14.50;9.23;;;19.80;99.90;;;;;;7300391;32;20115;-57
2023/10/09 14:08:42;;;;;;;20.15;11.07;;;20.00;99.90;;;;;;7303412;32;20104;-57
2023/10/09 14:12:44;;;;;;;20.17;11.27;;;20.00;99.90;;;;;;7299511;32;20138;-57
2023/10/09 14:16:46;;;;;;;22.27;11.88;;;20.10;99.90;;;;;;7303182;32;20226;-58
2023/10/09 14:20:49;;;;;;;15.98;11.35;;;20.20;99.90;;;;;;7300265;32;20217;-57
2023/10/09 14:24:55;;;;;;;19.25;11.23;;;20.10;99.90;;;;;;7301387;32;20218;-58
2023/10/09 14:28:57;;;;;;;17.73;11.45;;;20.00;99.90;;;;;;7297775;32;20116;-57
2023/10/09 14:33:01;;;;;;;20.52;11.93;;;20.10;99.90;;;;;;7298568;32;20119;-57
2023/10/09 14:37:06;;;;;;;17.85;12.25;;;20.00;99.90;;;;;;7294004;32;20231;-58
2023/10/09 14:41:11;;;;;;;20.65;11.55;;;20.10;99.90;;;;;;7293069;32;20341;-57
2023/10/09 14:45:16;;;;;;;20.25;12.52;;;20.10;99.90;;;;;;7299147;32;20153;-58
2023/10/09 14:49:21;;;;;;;18.60;11.90;;;20.00;99.90;;;;;;7293904;32;20211;-57
2023/10/09 14:53:26;;;;;;;17.58;11.00;;;19.80;99.90;;;;;;7296369;32;20202;-58
2023/10/09 14:57:32;;;;;;;20.58;10.82;;;19.70;99.90;;;;;;7290914;32;20222;-58
2023/10/09 15:01:35;;;;;;;16.02;10.80;;;19.70;99.90;;;;;;7297355;32;20149;-58
2023/10/09 15:05:37;;;;;;;17.62;10.82;;;19.70;99.90;;;;;;7290822;32;20251;-57
2023/10/09 15:09:41;;;;;;;18.83;10.70;;;19.60;99.90;;;;;;7300286;32;20180;-57
2023/10/09 15:13:42;;;;;;;13.77;10.52;;;19.60;99.90;;;;;;7299871;32;20292;-58
2023/10/09 15:17:47;;;;;;;15.52;9.43;;;19.50;99.90;;;;;;7299728;32;20112;-57
2023/10/09 15:21:50;;;;;;;20.60;11.73;;;19.40;99.90;;;;;;7295934;32;21474;-57
2023/10/09 15:25:52;;;;;;;16.42;10.45;;;19.50;99.90;;;;;;7293861;32;20380;-57
2023/10/09 15:29:54;;;;;;;13.55;9.43;;;19.60;99.90;;;;;;7298766;32;20185;-59
2023/10/09 15:33:55;;;;;;;16.55;10.38;;;19.50;99.90;;;;;;7293064;32;20109;-58
2023/10/09 15:38:02;;;;;;;18.45;10.50;;;19.50;99.90;;;;;;7297880;32;20280;-58
2023/10/09 15:42:06;;;;;;;18.90;10.70;;;19.60;99.90;;;;;;7296384;32;20282;-57
2023/10/09 15:46:14;;;;;;;20.02;12.02;;;19.50;99.90;;;;;;7300010;32;20187;-57
2023/10/09 15:50:16;;;;;;;18.25;10.48;;;19.60;99.90;;;;;;7298921;32;20238;-58
2023/10/09 15:54:19;;;;;;;18.00;10.48;;;19.50;99.90;;;;;;7291530;32;20132;-57
2023/10/09 15:58:21;;;;;;;20.20;11.18;;;19.50;99.90;;;;;;7294978;32;20123;-57
2023/10/09 16:02:22;;;;;;;18.00;11.02;;;19.40;99.90;;;;;;7298516;32;20216;-57
2023/10/09 16:06:27;;;;;;;18.50;10.70;;;19.40;99.90;;;;;;7293149;32;20604;-57
2023/10/09 16:10:31;;;;;;;17.20;9.80;;;19.40;99.90;;;;;;7294596;32;20113;-57
2023/10/09 16:14:34;;;;;;;16.92;9.45;;;19.30;99.90;;;;;;7297751;32;20136;-57
2023/10/09 16:18:37;;;;;;;20.35;10.48;;;19.30;99.90;;;;;;7293875;32;20116;-56
2023/10/09 16:22:45;;;;;;;20.77;10.82;;;19.30;99.90;;;;;;7302091;32;20178;-56
2023/10/09 16:26:51;;;;;;;19.45;10.07;;;19.10;99.90;;;;;;7294719;32;20513;-56
2023/10/09 16:30:53;;;;;;;21.17;11.00;;;19.10;99.90;;;;;;7296967;32;20109;-57
2023/10/09 16:34:55;;;;;;;22.70;11.80;;;19.00;99.90;;;;;;7288448;32;20124;-57
2023/10/09 16:38:58;;;;;;;18.12;10.35;;;19.00;99.90;;;;;;7302206;32;20115;-57
2023/10/09 16:43:01;;;;;;;17.40;11.32;;;18.90;99.90;;;;;;7302010;32;20247;-57
2023/10/09 16:47:03;;;;;;;17.12;10.75;;;18.70;99.90;;;;;;7296267;32;20502;-57
2023/10/09 16:51:09;;;;;;;20.12;12.55;;;18.70;99.90;;;;;;7301814;32;20120;-55
2023/10/09 16:55:11;;;;;;;17.85;11.25;;;18.80;99.90;;;;;;7298292;32;20525;-57
2023/10/09 16:59:16;;;;;;;17.87;10.88;;;18.70;99.90;;;;;;7292416;32;20110;-57
2023/10/09 17:03:20;;;;;;;24.35;11.75;;;18.70;99.90;;;;;;7296735;32;20130;-53
2023/10/09 17:07:25;;;;;;;23.70;11.50;;;18.60;99.90;;;;;;7301452;32;20126;-55
2023/10/09 17:11:27;;;;;;;14.82;9.48;;;18.60;99.90;;;;;;7302512;32;20161;-55
2023/10/09 17:15:36;;;;;;;22.37;11.25;;;18.50;99.90;;;;;;7296688;32;20213;-57
2023/10/09 17:19:37;;;;;;;18.80;11.30;;;18.50;99.90;;;;;;7298716;32;20130;-56
2023/10/09 17:23:46;;;;;;;16.42;10.63;;;18.50;99.90;;;;;;7302331;32;20362;-56
2023/10/09 17:27:48;;;;;;;19.83;10.73;;;18.40;99.90;;;;;;7297227;32;20489;-55
2023/10/09 17:31:50;;;;;;;16.83;10.73;;;18.40;99.90;;;;;;7300531;32;20561;-57
2023/10/09 17:35:53;;;;;;;14.60;9.77;;;18.40;99.90;;;;;;7299483;32;20172;-57
2023/10/09 17:39:55;;;;;;;13.40;8.85;;;18.40;99.90;;;;;;7294383;32;20179;-55
2023/10/09 17:44:01;;;;;;;18.35;10.55;;;18.30;99.90;;;;;;7297056;32;20164;-55
2023/10/09 17:48:08;;;;;;;17.20;10.68;;;18.20;99.90;;;;;;7296197;32;20108;-56
2023/10/09 17:52:11;;;;;;;16.45;11.32;;;18.20;99.90;;;;;;7300441;32;20834;-56
2023/10/09 17:56:13;;;;;;;16.05;9.90;;;18.10;99.90;;;;;;7294369;32;20187;-56
2023/10/09 18:00:22;;;;;;;18.55;11.27;;;18.20;99.90;;;;;;7295237;32;20127;-56
2023/10/09 18:04:24;;;;;;;22.87;11.05;;;18.20;99.90;;;;;;7283037;32;20217;-56
2023/10/09 18:08:26;;;;;;;18.12;10.75;;;18.20;99.90;;;;;;7287457;32;20399;-56
2023/10/09 18:12:27;;;;;;;18.85;10.30;;;18.10;99.90;;;;;;7287434;32;20196;-57
2023/10/09 18:16:29;;;;;;;18.65;10.85;;;18.10;99.90;;;;;;7287116;32;20195;-56
2023/10/09 18:20:31;;;;;;;17.02;10.35;;;18.20;99.90;;;;;;7292657;32;20249;-56
2023/10/09 18:24:40;;;;;;;18.45;10.80;;;18.20;99.90;;;;;;7285691;32;20556;-55
2023/10/09 18:28:44;;;;;;;16.97;10.70;;;18.20;99.90;;;;;;7291424;32;20221;-56
2023/10/09 18:32:46;;;;;;;18.73;11.00;;;18.20;99.90;;;;;;7294283;32;20107;-56
2023/10/09 18:36:49;;;;;;;15.20;11.43;;;18.30;99.90;;;;;;7297350;32;20635;-56
2023/10/09 18:40:51;;;;;;;19.85;12.02;;;18.20;99.90;;;;;;7287470;32;20215;-56
2023/10/09 18:44:52;;;;;;;19.73;11.32;;;18.30;99.90;;;;;;7286480;32;20173;-57
2023/10/09 18:49:00;;;;;;;25.88;11.57;;;18.10;99.90;;;;;;7292974;32;20783;-56
2023/10/09 18:53:02;;;;;;;20.88;12.82;;;18.10;99.90;;;;;;7290403;32;20605;-57
2023/10/09 18:57:04;;;;;;;18.73;12.63;;;18.10;99.90;;;;;;7293001;32;20198;-57
2023/10/09 19:01:12;;;;;;;28.10;12.40;;;18.10;99.90;;;;;;7292779;32;20164;-56
2023/10/09 19:05:14;;;;;;;19.95;12.82;;;18.10;99.90;;;;;;7301750;32;20145;-56
2023/10/09 19:09:22;;;;;;;22.30;12.20;;;18.00;99.90;;;;;;7284776;32;20112;-55
2023/10/09 19:13:25;;;;;;;22.62;13.05;;;18.00;99.90;;;;;;7283979;32;20142;-56
2023/10/09 19:17:27;;;;;;;20.92;13.77;;;18.00;99.90;;;;;;7295296;32;20157;-56
2023/10/09 19:21:29;;;;;;;19.48;13.32;;;17.90;99.90;;;;;;7299237;32;20134;-56
2023/10/09 19:25:32;;;;;;;24.83;13.80;;;17.70;99.90;;;;;;7296113;32;20222;-56
2023/10/09 19:29:34;;;;;;;22.65;13.75;;;17.80;99.90;;;;;;7291500;32;20218;-56
2023/10/09 19:33:41;;;;;;;20.27;13.25;;;17.80;99.90;;;;;;7296583;32;20163;-57
2023/10/09 19:37:46;;;;;;;23.60;14.25;;;17.70;99.90;;;;;;7296703;32;20238;-57
2023/10/09 19:41:48;;;;;;;21.05;14.60;;;17.80;99.90;;;;;;7296388;32;20790;-55
2023/10/09 19:45:51;;;;;;;20.60;13.48;;;17.80;99.90;;;;;;7295927;32;20675;-56
2023/10/09 19:49:52;;;;;;;21.90;13.10;;;17.70;99.90;;;;;;7299759;32;20213;-57
2023/10/09 19:53:54;;;;;;;23.23;14.10;;;17.70;99.90;;;;;;7293556;32;20225;-56
2023/10/09 19:57:56;;;;;;;19.20;13.30;;;17.70;99.90;;;;;;7296077;32;20104;-56
2023/10/09 20:01:59;;;;;;;20.77;12.10;;;17.70;99.90;;;;;;7296849;32;20108;-57
2023/10/09 20:06:04;;;;;;;19.67;13.50;;;17.50;99.90;;;;;;7292899;32;20352;-56
2023/10/09 20:10:06;;;;;;;18.30;13.15;;;17.50;99.90;;;;;;7289329;32;20117;-57
2023/10/09 20:14:08;;;;;;;24.10;13.45;;;17.60;99.90;;;;;;7298049;32;20120;-55
2023/10/09 20:18:11;;;;;;;17.20;12.23;;;17.50;99.90;;;;;;7300666;32;20490;-56
2023/10/09 20:22:13;;;;;;;18.67;12.57;;;17.50;99.90;;;;;;7298650;32;20231;-55
2023/10/09 20:26:14;;;;;;;20.88;12.57;;;17.50;99.90;;;;;;7299117;32;20284;-57
2023/10/09 20:30:18;;;;;;;20.90;12.77;;;17.50;99.90;;;;;;7302119;32;20112;-57
2023/10/09 20:34:20;;;;;;;21.58;13.40;;;17.50;99.90;;;;;;7303215;32;20500;-56
2023/10/09 20:38:22;;;;;;;20.75;12.88;;;17.50;99.90;;;;;;7303252;32;20549;-56
2023/10/09 20:42:25;;;;;;;26.50;15.48;;;17.30;99.90;;;;;;7300838;32;20333;-56
2023/10/09 20:46:29;;;;;;;20.55;13.93;;;17.40;99.90;;;;;;7302302;32;20116;-56
2023/10/09 20:50:31;;;;;;;23.10;15.05;;;17.30;99.90;;;;;;7292921;32;20206;-56
2023/10/09 20:54:33;;;;;;;27.27;16.08;;;17.30;99.90;;;;;;7295171;32;20717;-56
2023/10/09 20:58:35;;;;;;;24.85;15.35;;;17.20;99.90;;;;;;7296772;32;20660;-57
2023/10/09 21:02:36;;;;;;;19.60;13.95;;;17.10;99.90;;;;;;7300036;32;20131;-57
2023/10/09 21:06:38;;;;;;;25.30;15.00;;;17.00;99.90;;;;;;7300838;32;20167;-56
2023/10/09 21:10:41;;;;;;;24.63;14.95;;;17.00;99.90;;;;;;7302159;32;20172;-56
2023/10/09 21:14:43;;;;;;;21.40;15.13;;;17.00;99.90;;;;;;7303830;32;20112;-57
2023/10/09 21:18:46;;;;;;;26.20;16.27;;;16.90;99.90;;;;;;7300547;32;20219;-56
2023/10/09 21:22:54;;;;;;;23.35;16.42;;;16.90;99.90;;;;;;7296028;32;20136;-55
2023/10/09 21:26:56;;;;;;;27.83;16.67;;;16.80;99.90;;;;;;7301178;32;20162;-56
2023/10/09 21:31:01;;;;;;;27.85;17.27;;;16.60;99.90;;;;;;7299620;32;20204;-56
2023/10/09 21:35:03;;;;;;;27.35;18.58;;;16.60;99.90;;;;;;7302058;32;20120;-56
2023/10/09 21:39:08;;;;;;;25.25;16.83;;;16.60;99.90;;;;;;7298914;32;20439;-56
2023/10/09 21:43:09;;;;;;;22.98;15.68;;;16.50;99.90;;;;;;7301573;32;20160;-56
2023/10/09 21:47:11;;;;;;;29.73;17.40;;;16.30;99.90;;;;;;7298244;32;20375;-57
2023/10/09 21:51:16;;;;;;;25.08;16.70;;;16.30;99.90;;;;;;7300735;32;20292;-57
2023/10/09 21:55:18;;;;;;;28.42;18.35;;;16.20;99.90;;;;;;7303347;32;20906;-56
2023/10/09 21:59:20;;;;;;;24.73;15.85;;;16.20;99.90;;;;;;7302761;32;20124;-57
2023/10/09 22:03:27;;;;;;;26.73;18.37;;;16.10;99.90;;;;;;7295376;32;20552;-58
2023/10/09 22:07:29;;;;;;;27.33;18.75;;;16.10;99.90;;;;;;7299437;32;20181;-56
2023/10/09 22:11:33;;;;;;;26.58;17.83;;;16.10;99.90;;;;;;7296234;32;20109;-57
2023/10/09 22:15:36;;;;;;;31.85;19.62;;;15.90;99.90;;;;;;7301918;32;20120;-56
2023/10/09 22:19:37;;;;;;;23.45;16.62;;;15.90;99.90;;;;;;7296955;32;20115;-56
2023/10/09 22:23:45;;;;;;;25.80;15.45;;;15.70;99.90;;;;;;7301086;32;20176;-56
2023/10/09 22:27:51;;;;;;;26.02;17.67;;;15.60;99.90;;;;;;7300994;32;20124;-58
2023/10/09 22:31:54;;;;;;;23.77;15.57;;;15.50;99.90;;;;;;7302288;32;20130;-56
2023/10/09 22:36:00;;;;;;;24.35;15.82;;;15.40;99.90;;;;;;7302707;32;20126;-56
2023/10/09 22:40:05;;;;;;;21.45;14.35;;;15.30;99.90;;;;;;7298235;32;20127;-57